sensor_id;sensor_type;location;lat;lon;timestamp;pressure;altitude;pressure_sealevel;temperature;humidity
63009;BME280;49099;28.428;-16.488;2023-03-04T00:00:04;98889.84;;;19.44;66.60
63009;BME280;49099;28.428;-16.488;2023-03-04T00:02:31;98899.03;;;19.43;66.86
63009;BME280;49099;28.428;-16.488;2023-03-04T00:04:58;98890.47;;;19.41;67.27
63009;BME280;49099;28.428;-16.488;2023-03-04T00:07:26;98884.47;;;19.44;66.75
63009;BME280;49099;28.428;-16.488;2023-03-04T00:09:53;98888.25;;;19.43;66.86
63009;BME280;49099;28.428;-16.488;2023-03-04T00:12:20;98891.25;;;19.41;66.97
63009;BME280;49099;28.428;-16.488;2023-03-04T00:14:47;98886.69;;;19.42;67.11
63009;BME280;49099;28.428;-16.488;2023-03-04T00:17:14;98889.38;;;19.51;66.99
63009;BME280;49099;28.428;-16.488;2023-03-04T00:19:42;98888.78;;;19.54;66.67
63009;BME280;49099;28.428;-16.488;2023-03-04T00:22:09;98895.56;;;19.51;66.83
63009;BME280;49099;28.428;-16.488;2023-03-04T00:24:36;98895.09;;;19.49;66.54
63009;BME280;49099;28.428;-16.488;2023-03-04T00:27:03;98892.41;;;19.49;66.87
63009;BME280;49099;28.428;-16.488;2023-03-04T00:29:31;98895.56;;;19.51;66.70
63009;BME280;49099;28.428;-16.488;2023-03-04T00:31:58;98888.59;;;19.50;66.99
63009;BME280;49099;28.428;-16.488;2023-03-04T00:34:25;98890.81;;;19.48;67.50
63009;BME280;49099;28.428;-16.488;2023-03-04T00:36:56;98898.41;;;19.46;67.76
63009;BME280;49099;28.428;-16.488;2023-03-04T00:39:29;98886.69;;;19.42;67.81
63009;BME280;49099;28.428;-16.488;2023-03-04T00:41:56;98888.25;;;19.43;67.51
63009;BME280;49099;28.428;-16.488;2023-03-04T00:44:24;98887.78;;;19.41;67.63
63009;BME280;49099;28.428;-16.488;2023-03-04T00:46:53;98884.13;;;19.37;67.76
63009;BME280;49099;28.428;-16.488;2023-03-04T00:49:21;98879.06;;;19.35;67.92
63009;BME280;49099;28.428;-16.488;2023-03-04T00:51:48;98874.00;;;19.34;67.54
63009;BME280;49099;28.428;-16.488;2023-03-04T00:54:15;98874.78;;;19.34;67.22
63009;BME280;49099;28.428;-16.488;2023-03-04T00:56:42;98864.81;;;19.35;66.98
63009;BME280;49099;28.428;-16.488;2023-03-04T00:59:09;98862.59;;;19.37;67.06
63009;BME280;49099;28.428;-16.488;2023-03-04T01:01:36;98855.63;;;19.36;66.92
63009;BME280;49099;28.428;-16.488;2023-03-04T01:04:04;98856.28;;;19.33;66.66
63009;BME280;49099;28.428;-16.488;2023-03-04T01:06:31;98845.84;;;19.31;66.83
63009;BME280;49099;28.428;-16.488;2023-03-04T01:09:00;98840.13;;;19.33;66.47
63009;BME280;49099;28.428;-16.488;2023-03-04T01:11:29;98829.84;;;19.35;66.30
63009;BME280;49099;28.428;-16.488;2023-03-04T01:13:57;98820.19;;;19.34;66.34
63009;BME280;49099;28.428;-16.488;2023-03-04T01:16:29;98811.66;;;19.32;66.16
63009;BME280;49099;28.428;-16.488;2023-03-04T01:18:57;98793.94;;;19.31;66.25
63009;BME280;49099;28.428;-16.488;2023-03-04T01:21:34;98791.09;;;19.36;66.34
63009;BME280;49099;28.428;-16.488;2023-03-04T01:24:03;98783.66;;;19.41;65.74
63009;BME280;49099;28.428;-16.488;2023-03-04T01:26:38;98787.63;;;19.44;64.92
63009;BME280;49099;28.428;-16.488;2023-03-04T01:29:07;98792.06;;;19.40;65.70
63009;BME280;49099;28.428;-16.488;2023-03-04T01:31:37;98786.84;;;19.43;65.21
63009;BME280;49099;28.428;-16.488;2023-03-04T01:34:07;98778.94;;;19.47;64.17
63009;BME280;49099;28.428;-16.488;2023-03-04T01:36:36;98773.69;;;19.42;64.10
63009;BME280;49099;28.428;-16.488;2023-03-04T01:39:04;98768.31;;;19.42;64.04
63009;BME280;49099;28.428;-16.488;2023-03-04T01:41:31;98772.28;;;19.44;64.28
63009;BME280;49099;28.428;-16.488;2023-03-04T01:43:59;98769.09;;;19.42;63.67
63009;BME280;49099;28.428;-16.488;2023-03-04T01:46:29;98776.25;;;19.38;63.27
63009;BME280;49099;28.428;-16.488;2023-03-04T01:48:56;98774.34;;;19.39;63.87
63009;BME280;49099;28.428;-16.488;2023-03-04T01:51:24;98770.53;;;19.40;62.89
63009;BME280;49099;28.428;-16.488;2023-03-04T01:53:51;98784.13;;;19.35;63.65
63009;BME280;49099;28.428;-16.488;2023-03-04T01:59:18;98793.91;;;19.22;62.52
63009;BME280;49099;28.428;-16.488;2023-03-04T02:01:47;98792.16;;;19.17;63.80
63009;BME280;49099;28.428;-16.488;2023-03-04T02:04:16;98782.19;;;19.18;63.78
63009;BME280;49099;28.428;-16.488;2023-03-04T02:06:46;98783.31;;;19.26;64.61
63009;BME280;49099;28.428;-16.488;2023-03-04T02:09:15;98787.59;;;19.27;65.20
63009;BME280;49099;28.428;-16.488;2023-03-04T02:11:43;98776.84;;;19.27;65.38
63009;BME280;49099;28.428;-16.488;2023-03-04T02:14:12;98780.97;;;19.33;65.40
63009;BME280;49099;28.428;-16.488;2023-03-04T02:16:41;98769.25;;;19.29;65.62
63009;BME280;49099;28.428;-16.488;2023-03-04T02:19:20;98773.69;;;19.25;65.88
63009;BME280;49099;28.428;-16.488;2023-03-04T02:21:49;98776.50;;;19.19;66.01
63009;BME280;49099;28.428;-16.488;2023-03-04T02:24:26;98770.19;;;19.15;66.56
63009;BME280;49099;28.428;-16.488;2023-03-04T02:26:55;98760.50;;;19.06;66.65
63009;BME280;49099;28.428;-16.488;2023-03-04T02:29:22;98759.56;;;19.10;66.75
63009;BME280;49099;28.428;-16.488;2023-03-04T02:31:51;98754.19;;;19.10;66.81
63009;BME280;49099;28.428;-16.488;2023-03-04T02:34:31;98744.53;;;19.09;66.94
63009;BME280;49099;28.428;-16.488;2023-03-04T02:37:00;98739.78;;;19.06;66.63
63009;BME280;49099;28.428;-16.488;2023-03-04T02:39:38;98728.09;;;19.02;65.98
63009;BME280;49099;28.428;-16.488;2023-03-04T02:42:06;98726.19;;;19.03;65.48
63009;BME280;49099;28.428;-16.488;2023-03-04T02:44:35;98707.69;;;19.01;64.86
63009;BME280;49099;28.428;-16.488;2023-03-04T02:47:05;98706.56;;;19.02;64.42
63009;BME280;49099;28.428;-16.488;2023-03-04T02:49:33;98691.56;;;19.01;64.13
63009;BME280;49099;28.428;-16.488;2023-03-04T02:52:08;98692.66;;;19.00;63.33
63009;BME280;49099;28.428;-16.488;2023-03-04T02:54:37;98684.09;;;18.98;63.19
63009;BME280;49099;28.428;-16.488;2023-03-04T02:57:07;98676.03;;;18.98;63.54
63009;BME280;49099;28.428;-16.488;2023-03-04T02:59:36;98670.66;;;18.98;63.18
63009;BME280;49099;28.428;-16.488;2023-03-04T03:02:04;98666.41;;;18.97;63.44
63009;BME280;49099;28.428;-16.488;2023-03-04T03:04:32;98655.19;;;18.95;63.12
63009;BME280;49099;28.428;-16.488;2023-03-04T03:06:59;98659.28;;;18.92;62.33
63009;BME280;49099;28.428;-16.488;2023-03-04T03:09:26;98651.06;;;18.89;61.79
63009;BME280;49099;28.428;-16.488;2023-03-04T03:11:53;98651.56;;;18.91;62.72
63009;BME280;49099;28.428;-16.488;2023-03-04T03:14:20;98646.78;;;18.88;61.65
63009;BME280;49099;28.428;-16.488;2023-03-04T03:16:47;98639.03;;;18.86;61.85
63009;BME280;49099;28.428;-16.488;2023-03-04T03:19:15;98648.53;;;18.84;62.09
63009;BME280;49099;28.428;-16.488;2023-03-04T03:21:42;98630.66;;;18.88;61.56
63009;BME280;49099;28.428;-16.488;2023-03-04T03:24:09;98643.97;;;18.93;61.28
63009;BME280;49099;28.428;-16.488;2023-03-04T03:26:36;98634.00;;;18.93;60.84
63009;BME280;49099;28.428;-16.488;2023-03-04T03:29:05;98634.78;;;18.94;61.07
63009;BME280;49099;28.428;-16.488;2023-03-04T03:31:32;98622.28;;;18.89;61.08
63009;BME280;49099;28.428;-16.488;2023-03-04T03:34:00;98616.59;;;18.91;61.00
63009;BME280;49099;28.428;-16.488;2023-03-04T03:36:27;98618.34;;;18.87;60.31
63009;BME280;49099;28.428;-16.488;2023-03-04T03:38:54;98627.50;;;18.86;60.53
63009;BME280;49099;28.428;-16.488;2023-03-04T03:41:21;98621.16;;;18.82;61.12
63009;BME280;49099;28.428;-16.488;2023-03-04T03:43:48;98626.53;;;18.90;61.68
63009;BME280;49099;28.428;-16.488;2023-03-04T03:46:15;98627.81;;;18.93;61.60
63009;BME280;49099;28.428;-16.488;2023-03-04T03:48:42;98626.84;;;18.89;60.66
63009;BME280;49099;28.428;-16.488;2023-03-04T03:51:09;98627.19;;;18.79;61.87
63009;BME280;49099;28.428;-16.488;2023-03-04T03:53:36;98634.47;;;18.87;62.00
63009;BME280;49099;28.428;-16.488;2023-03-04T03:56:04;98637.47;;;18.85;60.63
63009;BME280;49099;28.428;-16.488;2023-03-04T03:58:31;98647.09;;;18.78;61.34
63009;BME280;49099;28.428;-16.488;2023-03-04T04:00:58;98633.47;;;18.65;60.46
63009;BME280;49099;28.428;-16.488;2023-03-04T04:03:25;98652.13;;;18.71;61.50
63009;BME280;49099;28.428;-16.488;2023-03-04T04:05:52;98658.28;;;18.71;60.87
63009;BME280;49099;28.428;-16.488;2023-03-04T04:08:19;98662.56;;;18.81;61.91
63009;BME280;49099;28.428;-16.488;2023-03-04T04:10:46;98670.50;;;18.86;60.99
63009;BME280;49099;28.428;-16.488;2023-03-04T04:13:14;98668.75;;;18.81;61.24
63009;BME280;49099;28.428;-16.488;2023-03-04T04:15:41;98667.94;;;18.81;60.83
63009;BME280;49099;28.428;-16.488;2023-03-04T04:18:08;98675.34;;;18.75;60.94
63009;BME280;49099;28.428;-16.488;2023-03-04T04:20:35;98674.41;;;18.71;61.30
63009;BME280;49099;28.428;-16.488;2023-03-04T04:23:03;98674.22;;;18.68;61.76
63009;BME280;49099;28.428;-16.488;2023-03-04T04:25:30;98681.00;;;18.65;62.46
63009;BME280;49099;28.428;-16.488;2023-03-04T04:27:57;98680.66;;;18.58;63.40
63009;BME280;49099;28.428;-16.488;2023-03-04T04:30:25;98686.47;;;18.51;63.41
63009;BME280;49099;28.428;-16.488;2023-03-04T04:32:52;98678.41;;;18.43;64.50
63009;BME280;49099;28.428;-16.488;2023-03-04T04:35:19;98676.03;;;18.41;65.03
63009;BME280;49099;28.428;-16.488;2023-03-04T04:37:46;98668.91;;;18.36;64.68
63009;BME280;49099;28.428;-16.488;2023-03-04T04:40:14;98664.16;;;18.33;63.81
63009;BME280;49099;28.428;-16.488;2023-03-04T04:42:41;98657.66;;;18.34;63.20
63009;BME280;49099;28.428;-16.488;2023-03-04T04:45:08;98654.38;;;18.37;62.59
63009;BME280;49099;28.428;-16.488;2023-03-04T04:47:36;98642.22;;;18.40;62.46
63009;BME280;49099;28.428;-16.488;2023-03-04T04:50:03;98637.50;;;18.46;62.18
63009;BME280;49099;28.428;-16.488;2023-03-04T04:52:30;98622.66;;;18.48;61.75
63009;BME280;49099;28.428;-16.488;2023-03-04T04:54:57;98613.97;;;18.51;62.22
63009;BME280;49099;28.428;-16.488;2023-03-04T04:57:25;98614.63;;;18.57;61.86
63009;BME280;49099;28.428;-16.488;2023-03-04T04:59:52;98605.63;;;18.61;61.86
63009;BME280;49099;28.428;-16.488;2023-03-04T05:02:20;98599.63;;;18.64;61.19
63009;BME280;49099;28.428;-16.488;2023-03-04T05:04:47;98589.50;;;18.61;61.39
63009;BME280;49099;28.428;-16.488;2023-03-04T05:07:14;98587.28;;;18.63;61.13
63009;BME280;49099;28.428;-16.488;2023-03-04T05:09:41;98584.00;;;18.67;60.64
63009;BME280;49099;28.428;-16.488;2023-03-04T05:12:08;98572.13;;;18.68;60.21
63009;BME280;49099;28.428;-16.488;2023-03-04T05:14:35;98570.75;;;18.70;59.00
63009;BME280;49099;28.428;-16.488;2023-03-04T05:17:02;98568.66;;;18.67;58.34
63009;BME280;49099;28.428;-16.488;2023-03-04T05:19:30;98561.53;;;18.62;58.69
63009;BME280;49099;28.428;-16.488;2023-03-04T05:21:57;98556.63;;;18.64;59.32
63009;BME280;49099;28.428;-16.488;2023-03-04T05:24:24;98560.31;;;18.69;58.52
63009;BME280;49099;28.428;-16.488;2023-03-04T05:26:51;98558.41;;;18.69;59.18
63009;BME280;49099;28.428;-16.488;2023-03-04T05:29:18;98565.50;;;18.74;58.92
63009;BME280;49099;28.428;-16.488;2023-03-04T05:31:45;98569.50;;;18.76;59.28
63009;BME280;49099;28.428;-16.488;2023-03-04T05:34:13;98574.22;;;18.79;58.99
63009;BME280;49099;28.428;-16.488;2023-03-04T05:36:40;98580.38;;;18.80;59.52
63009;BME280;49099;28.428;-16.488;2023-03-04T05:39:07;98582.13;;;18.76;59.67
63009;BME280;49099;28.428;-16.488;2023-03-04T05:41:34;98595.41;;;18.81;59.53
63009;BME280;49099;28.428;-16.488;2023-03-04T05:44:02;98591.78;;;18.77;59.03
63009;BME280;49099;28.428;-16.488;2023-03-04T05:46:29;98600.63;;;18.69;59.46
63009;BME280;49099;28.428;-16.488;2023-03-04T05:48:59;98600.13;;;18.67;60.29
63009;BME280;49099;28.428;-16.488;2023-03-04T05:51:26;98597.59;;;18.70;60.96
63009;BME280;49099;28.428;-16.488;2023-03-04T05:53:53;98587.66;;;18.71;60.28
63009;BME280;49099;28.428;-16.488;2023-03-04T05:56:20;98593.63;;;18.68;60.79
63009;BME280;49099;28.428;-16.488;2023-03-04T05:58:47;98590.47;;;18.65;60.64
63009;BME280;49099;28.428;-16.488;2023-03-04T06:01:15;98595.03;;;18.65;60.95
63009;BME280;49099;28.428;-16.488;2023-03-04T06:03:43;98600.88;;;18.58;60.52
63009;BME280;49099;28.428;-16.488;2023-03-04T06:06:10;98589.66;;;18.56;59.85
63009;BME280;49099;28.428;-16.488;2023-03-04T06:08:37;98591.53;;;18.56;60.50
63009;BME280;49099;28.428;-16.488;2023-03-04T06:11:05;98595.66;;;18.53;60.75
63009;BME280;49099;28.428;-16.488;2023-03-04T06:13:32;98597.25;;;18.54;61.69
63009;BME280;49099;28.428;-16.488;2023-03-04T06:16:00;98601.03;;;18.53;61.53
63009;BME280;49099;28.428;-16.488;2023-03-04T06:18:28;98607.81;;;18.59;61.96
63009;BME280;49099;28.428;-16.488;2023-03-04T06:21:00;98608.31;;;18.61;61.86
63009;BME280;49099;28.428;-16.488;2023-03-04T06:23:28;98610.38;;;18.64;61.51
63009;BME280;49099;28.428;-16.488;2023-03-04T06:25:57;98619.88;;;18.71;62.11
63009;BME280;49099;28.428;-16.488;2023-03-04T06:28:24;98620.50;;;18.68;61.52
63009;BME280;49099;28.428;-16.488;2023-03-04T06:30:53;98618.28;;;18.61;61.86
63009;BME280;49099;28.428;-16.488;2023-03-04T06:33:20;98625.50;;;18.52;61.62
63009;BME280;49099;28.428;-16.488;2023-03-04T06:35:48;98620.88;;;18.44;62.09
63009;BME280;49099;28.428;-16.488;2023-03-04T06:38:15;98618.38;;;18.38;62.45
63009;BME280;49099;28.428;-16.488;2023-03-04T06:40:42;98628.31;;;18.38;62.52
63009;BME280;49099;28.428;-16.488;2023-03-04T06:43:09;98627.22;;;18.39;62.25
63009;BME280;49099;28.428;-16.488;2023-03-04T06:45:38;98628.78;;;18.40;62.16
63009;BME280;49099;28.428;-16.488;2023-03-04T06:48:05;98636.09;;;18.48;63.04
63009;BME280;49099;28.428;-16.488;2023-03-04T06:50:32;98636.88;;;18.49;61.86
63009;BME280;49099;28.428;-16.488;2023-03-04T06:52:59;98644.13;;;18.48;61.47
63009;BME280;49099;28.428;-16.488;2023-03-04T06:55:26;98643.66;;;18.46;61.98
63009;BME280;49099;28.428;-16.488;2023-03-04T06:57:53;98650.16;;;18.45;61.66
63009;BME280;49099;28.428;-16.488;2023-03-04T07:00:21;98659.28;;;18.44;62.14
63009;BME280;49099;28.428;-16.488;2023-03-04T07:02:50;98670.38;;;18.51;62.84
63009;BME280;49099;28.428;-16.488;2023-03-04T07:05:20;98669.56;;;18.51;61.40
63009;BME280;49099;28.428;-16.488;2023-03-04T07:07:47;98667.94;;;18.32;61.14
63009;BME280;49099;28.428;-16.488;2023-03-04T07:10:17;98670.59;;;18.24;61.65
63009;BME280;49099;28.428;-16.488;2023-03-04T07:12:44;98671.81;;;18.18;61.81
63009;BME280;49099;28.428;-16.488;2023-03-04T07:15:12;98681.59;;;18.14;61.46
63009;BME280;49099;28.428;-16.488;2023-03-04T07:17:39;98687.09;;;18.08;61.52
63009;BME280;49099;28.428;-16.488;2023-03-04T07:20:08;98690.88;;;18.07;61.95
63009;BME280;49099;28.428;-16.488;2023-03-04T07:22:35;98700.53;;;18.08;62.28
63009;BME280;49099;28.428;-16.488;2023-03-04T07:25:03;98699.88;;;18.12;61.50
63009;BME280;49099;28.428;-16.488;2023-03-04T07:27:31;98702.09;;;18.09;61.65
63009;BME280;49099;28.428;-16.488;2023-03-04T07:29:58;98708.09;;;18.06;61.91
63009;BME280;49099;28.428;-16.488;2023-03-04T07:32:25;98711.25;;;18.08;61.98
63009;BME280;49099;28.428;-16.488;2023-03-04T07:34:52;98701.16;;;18.05;62.01
63009;BME280;49099;28.428;-16.488;2023-03-04T07:37:19;98708.69;;;18.03;62.13
63009;BME280;49099;28.428;-16.488;2023-03-04T07:39:46;98712.34;;;18.07;62.31
63009;BME280;49099;28.428;-16.488;2023-03-04T07:42:13;98713.63;;;18.10;62.29
63009;BME280;49099;28.428;-16.488;2023-03-04T07:44:40;98716.50;;;18.14;62.83
63009;BME280;49099;28.428;-16.488;2023-03-04T07:47:08;98716.97;;;18.16;62.60
63009;BME280;49099;28.428;-16.488;2023-03-04T07:49:35;98713.97;;;18.17;62.27
63009;BME280;49099;28.428;-16.488;2023-03-04T07:52:03;98715.25;;;18.20;62.28
63009;BME280;49099;28.428;-16.488;2023-03-04T07:54:31;98729.03;;;18.27;62.73
63009;BME280;49099;28.428;-16.488;2023-03-04T07:56:58;98730.53;;;18.42;62.12
63009;BME280;49099;28.428;-16.488;2023-03-04T07:59:25;98733.88;;;18.47;61.63
63009;BME280;49099;28.428;-16.488;2023-03-04T08:01:52;98728.06;;;18.54;61.75
63009;BME280;49099;28.428;-16.488;2023-03-04T08:04:19;98718.44;;;18.61;61.48
63009;BME280;49099;28.428;-16.488;2023-03-04T08:06:46;98724.19;;;18.69;61.60
63009;BME280;49099;28.428;-16.488;2023-03-04T08:09:14;98727.53;;;18.74;61.00
63009;BME280;49099;28.428;-16.488;2023-03-04T08:11:42;98729.72;;;18.72;61.25
63009;BME280;49099;28.428;-16.488;2023-03-04T08:14:11;98730.72;;;18.76;61.72
63009;BME280;49099;28.428;-16.488;2023-03-04T08:16:39;98733.22;;;18.73;61.60
63009;BME280;49099;28.428;-16.488;2023-03-04T08:19:07;98731.63;;;18.72;61.64
63009;BME280;49099;28.428;-16.488;2023-03-04T08:21:35;98728.94;;;18.72;61.57
63009;BME280;49099;28.428;-16.488;2023-03-04T08:24:03;98732.09;;;18.74;61.56
63009;BME280;49099;28.428;-16.488;2023-03-04T08:26:45;98737.34;;;18.79;61.00
63009;BME280;49099;28.428;-16.488;2023-03-04T08:29:16;98742.59;;;18.84;60.52
63009;BME280;49099;28.428;-16.488;2023-03-04T08:31:43;98758.56;;;18.89;60.79
63009;BME280;49099;28.428;-16.488;2023-03-04T08:34:14;98753.03;;;18.94;60.34
63009;BME280;49099;28.428;-16.488;2023-03-04T08:36:42;98761.91;;;19.03;60.22
63009;BME280;49099;28.428;-16.488;2023-03-04T08:39:12;98771.44;;;19.09;59.90
63009;BME280;49099;28.428;-16.488;2023-03-04T08:41:40;98773.47;;;19.12;60.00
63009;BME280;49099;28.428;-16.488;2023-03-04T08:44:07;98785.34;;;19.11;59.45
63009;BME280;49099;28.428;-16.488;2023-03-04T08:46:38;98787.09;;;19.16;58.89
63009;BME280;49099;28.428;-16.488;2023-03-04T08:49:06;98787.09;;;19.16;59.85
63009;BME280;49099;28.428;-16.488;2023-03-04T08:51:34;98804.97;;;19.20;59.12
63009;BME280;49099;28.428;-16.488;2023-03-04T08:54:02;98806.41;;;19.27;58.66
63009;BME280;49099;28.428;-16.488;2023-03-04T08:56:29;98811.78;;;19.27;58.90
63009;BME280;49099;28.428;-16.488;2023-03-04T08:58:58;98823.81;;;19.29;59.69
63009;BME280;49099;28.428;-16.488;2023-03-04T09:01:25;98827.81;;;19.32;58.84
63009;BME280;49099;28.428;-16.488;2023-03-04T09:03:52;98837.44;;;19.33;58.81
63009;BME280;49099;28.428;-16.488;2023-03-04T09:06:19;98841.41;;;19.35;59.09
63009;BME280;49099;28.428;-16.488;2023-03-04T09:08:47;98847.09;;;19.34;58.68
63009;BME280;49099;28.428;-16.488;2023-03-04T09:11:14;98847.09;;;19.34;58.95
63009;BME280;49099;28.428;-16.488;2023-03-04T09:13:41;98855.03;;;19.39;58.93
63009;BME280;49099;28.428;-16.488;2023-03-04T09:16:10;98859.31;;;19.40;58.49
63009;BME280;49099;28.428;-16.488;2023-03-04T09:18:38;98865.16;;;19.42;59.33
63009;BME280;49099;28.428;-16.488;2023-03-04T09:21:06;98855.97;;;19.43;59.21
63009;BME280;49099;28.428;-16.488;2023-03-04T09:23:37;98852.69;;;19.46;59.14
63009;BME280;49099;28.428;-16.488;2023-03-04T09:26:21;98856.31;;;19.50;59.00
63009;BME280;49099;28.428;-16.488;2023-03-04T09:28:50;98861.06;;;19.53;59.16
63009;BME280;49099;28.428;-16.488;2023-03-04T09:31:17;98858.56;;;19.57;59.09
63009;BME280;49099;28.428;-16.488;2023-03-04T09:33:44;98862.38;;;19.64;59.18
63009;BME280;49099;28.428;-16.488;2023-03-04T09:36:13;98858.59;;;19.65;59.12
63009;BME280;49099;28.428;-16.488;2023-03-04T09:38:41;98859.84;;;19.68;58.40
63009;BME280;49099;28.428;-16.488;2023-03-04T09:41:25;98857.34;;;19.71;58.85
63009;BME280;49099;28.428;-16.488;2023-03-04T09:43:55;98851.31;;;19.74;58.57
63009;BME280;49099;28.428;-16.488;2023-03-04T09:46:33;98848.00;;;19.78;58.31
63009;BME280;49099;28.428;-16.488;2023-03-04T09:49:02;98853.22;;;19.83;57.29
63009;BME280;49099;28.428;-16.488;2023-03-04T09:54:53;98848.03;;;19.86;56.39
63009;BME280;49099;28.428;-16.488;2023-03-04T09:57:46;98857.03;;;19.82;55.88
63009;BME280;49099;28.428;-16.488;2023-03-04T10:03:16;98858.94;;;19.90;55.57
63009;BME280;49099;28.428;-16.488;2023-03-04T10:05:50;98862.72;;;19.89;55.94
63009;BME280;49099;28.428;-16.488;2023-03-04T10:10:55;98859.25;;;19.97;55.64
63009;BME280;49099;28.428;-16.488;2023-03-04T10:13:36;98858.00;;;20.03;55.27
63009;BME280;49099;28.428;-16.488;2023-03-04T10:16:08;98864.97;;;20.04;55.58
63009;BME280;49099;28.428;-16.488;2023-03-04T10:18:55;98864.97;;;20.04;55.81
63009;BME280;49099;28.428;-16.488;2023-03-04T10:21:38;98864.50;;;20.11;55.85
63009;BME280;49099;28.428;-16.488;2023-03-04T10:24:12;98867.66;;;20.21;55.52
63009;BME280;49099;28.428;-16.488;2023-03-04T10:26:44;98865.91;;;20.25;55.77
63009;BME280;49099;28.428;-16.488;2023-03-04T10:29:16;98867.97;;;20.28;56.23
63009;BME280;49099;28.428;-16.488;2023-03-04T10:31:45;98860.19;;;20.36;55.50
63009;BME280;49099;28.428;-16.488;2023-03-04T10:34:13;98853.53;;;20.42;55.79
63009;BME280;49099;28.428;-16.488;2023-03-04T10:41:44;98853.41;;;20.47;55.21
63009;BME280;49099;28.428;-16.488;2023-03-04T10:44:15;98842.63;;;20.47;55.81
63009;BME280;49099;28.428;-16.488;2023-03-04T10:46:45;98837.84;;;20.52;56.54
63009;BME280;49099;28.428;-16.488;2023-03-04T10:49:14;98838.34;;;20.54;57.27
63009;BME280;49099;28.428;-16.488;2023-03-04T10:52:02;98840.38;;;20.57;57.52
63009;BME280;49099;28.428;-16.488;2023-03-04T10:54:51;98842.75;;;20.59;57.91
63009;BME280;49099;28.428;-16.488;2023-03-04T10:57:25;98836.56;;;20.58;57.60
63009;BME280;49099;28.428;-16.488;2023-03-04T10:59:55;98834.97;;;20.57;57.78
63009;BME280;49099;28.428;-16.488;2023-03-04T11:02:32;98830.38;;;20.58;59.20
63009;BME280;49099;28.428;-16.488;2023-03-04T11:05:18;98825.75;;;20.67;58.91
63009;BME280;49099;28.428;-16.488;2023-03-04T11:07:49;98823.53;;;20.69;59.89
63009;BME280;49099;28.428;-16.488;2023-03-04T11:16:00;98824.94;;;20.75;60.18
63009;BME280;49099;28.428;-16.488;2023-03-04T11:21:41;98822.75;;;20.60;61.53
63009;BME280;49099;28.428;-16.488;2023-03-04T11:24:13;98826.44;;;20.55;61.43
63009;BME280;49099;28.428;-16.488;2023-03-04T11:27:04;98829.28;;;20.59;62.06
63009;BME280;49099;28.428;-16.488;2023-03-04T11:32:14;98835.13;;;20.61;61.75
63009;BME280;49099;28.428;-16.488;2023-03-04T11:35:00;98824.63;;;20.68;60.85
63009;BME280;49099;28.428;-16.488;2023-03-04T11:37:41;98813.53;;;20.78;60.15
63009;BME280;49099;28.428;-16.488;2023-03-04T11:40:17;98806.81;;;20.84;60.32
63009;BME280;49099;28.428;-16.488;2023-03-04T11:57:17;98777.19;;;21.14;60.09
63009;BME280;49099;28.428;-16.488;2023-03-04T12:02:22;98761.00;;;21.14;59.63
63009;BME280;49099;28.428;-16.488;2023-03-04T12:10:36;98746.31;;;21.32;58.66
63009;BME280;49099;28.428;-16.488;2023-03-04T12:16:20;98748.19;;;21.40;55.99
63009;BME280;49099;28.428;-16.488;2023-03-04T12:24:22;98728.72;;;21.26;55.14
63009;BME280;49099;28.428;-16.488;2023-03-04T12:29:47;98727.22;;;21.37;56.72
63009;BME280;49099;28.428;-16.488;2023-03-04T12:32:30;98718.09;;;21.51;56.42
63009;BME280;49099;28.428;-16.488;2023-03-04T12:40:48;98705.53;;;21.34;57.63
63009;BME280;49099;28.428;-16.488;2023-03-04T12:43:33;98697.88;;;21.36;57.21
63009;BME280;49099;28.428;-16.488;2023-03-04T12:54:33;98674.03;;;21.59;56.05
63009;BME280;49099;28.428;-16.488;2023-03-04T12:57:18;98669.53;;;21.63;56.03
63009;BME280;49099;28.428;-16.488;2023-03-04T12:59:51;98664.13;;;21.63;55.67
63009;BME280;49099;28.428;-16.488;2023-03-04T13:08:22;98659.47;;;21.72;53.02
63009;BME280;49099;28.428;-16.488;2023-03-04T13:10:51;98661.50;;;21.75;54.15
63009;BME280;49099;28.428;-16.488;2023-03-04T13:16:27;98661.50;;;21.75;53.08
63009;BME280;49099;28.428;-16.488;2023-03-04T13:18:50;98666.22;;;21.78;53.11
63009;BME280;49099;28.428;-16.488;2023-03-04T13:21:26;98665.97;;;21.71;52.91
63009;BME280;49099;28.428;-16.488;2023-03-04T13:24:43;98667.97;;;21.62;53.24
63009;BME280;49099;28.428;-16.488;2023-03-04T13:26:41;98665.75;;;21.64;53.59
63009;BME280;49099;28.428;-16.488;2023-03-04T13:32:03;98670.63;;;21.50;52.94
63009;BME280;49099;28.428;-16.488;2023-03-04T13:34:51;98661.00;;;21.61;52.93
63009;BME280;49099;28.428;-16.488;2023-03-04T13:37:33;98665.75;;;21.64;52.78
63009;BME280;49099;28.428;-16.488;2023-03-04T13:40:36;98660.13;;;21.69;53.00
63009;BME280;49099;28.428;-16.488;2023-03-04T13:43:23;98665.25;;;21.62;51.46
63009;BME280;49099;28.428;-16.488;2023-03-04T13:45:51;98656.53;;;21.44;53.97
63009;BME280;49099;28.428;-16.488;2023-03-04T13:56:42;98659.25;;;21.44;53.68
63009;BME280;49099;28.428;-16.488;2023-03-04T13:59:21;98651.47;;;21.42;51.29
63009;BME280;49099;28.428;-16.488;2023-03-04T14:02:13;98660.81;;;21.45;53.90
63009;BME280;49099;28.428;-16.488;2023-03-04T14:12:21;98651.94;;;21.78;53.23
63009;BME280;49099;28.428;-16.488;2023-03-04T14:14:51;98652.84;;;21.82;51.29
63009;BME280;49099;28.428;-16.488;2023-03-04T14:17:30;98650.00;;;21.78;52.42
63009;BME280;49099;28.428;-16.488;2023-03-04T14:19:58;98650.25;;;21.85;52.74
63009;BME280;49099;28.428;-16.488;2023-03-04T14:25:06;98645.34;;;22.00;52.05
63009;BME280;49099;28.428;-16.488;2023-03-04T14:27:46;98651.25;;;22.14;51.68
63009;BME280;49099;28.428;-16.488;2023-03-04T14:30:25;98646.19;;;22.24;50.78
63009;BME280;49099;28.428;-16.488;2023-03-04T14:33:22;98649.91;;;22.32;51.73
63009;BME280;49099;28.428;-16.488;2023-03-04T14:35:52;98644.72;;;22.15;49.75
63009;BME280;49099;28.428;-16.488;2023-03-04T14:38:26;98643.03;;;22.10;52.04
63009;BME280;49099;28.428;-16.488;2023-03-04T14:41:09;98636.41;;;22.20;49.47